Terminal Aerodrome Forecast
Issued by NWS

Home | Current Version | Previous Version | Text Only | Print | Product List | Glossary On
Versions: 1 2 3 4 5 6 7 8 9 10 11 12 13 14 15 16
000
FTUS46 KMTR 020500
TAFSNS
TAF
KSNS 020539Z 0206/0306 27007KT P6SM OVC005
     FM021100 28003KT 4SM BR OVC004
     FM021700 29006KT P6SM SKC
     FM022100 29013KT P6SM SKC
     FM030230 29011KT P6SM OVC008=

USA.gov is the U.S. government's official web portal to all federal, state and local government web resources and services.